Time;durP1;ratioP1;P1;durP2;ratioP2;P2;SDS_P1;SDS_P2;PMS_P1;PMS_P2;Temp;Humidity;BMP_temperature;BMP_pressure;BME280_temperature;BME280_humidity;BME280_pressure;Samples;Min_cycle;Max_cycle;Signal;HPM_P1;HPM_P2
2023/01/31 00:00:54;;;;;;;4.65;1.70;;;12.60;75.70;;;;;;5077179;28;20052;-76
2023/01/31 00:03:21;;;;;;;4.43;1.70;;;11.30;75.10;;;;;;5076159;28;20058;-76
2023/01/31 00:05:49;;;;;;;4.18;1.63;;;11.50;57.40;;;;;;5076998;28;20404;-76
2023/01/31 00:08:17;;;;;;;3.63;1.83;;;;;;;;;;5094825;28;20048;-76
2023/01/31 00:10:44;;;;;;;4.43;1.55;;;;;;;;;;5076928;28;20060;-76
2023/01/31 00:13:11;;;;;;;2.97;1.60;;;11.90;75.30;;;;;;5076422;28;20404;-76
2023/01/31 00:15:37;;;;;;;3.33;1.60;;;12.40;75.50;;;;;;5076377;28;20048;-76
2023/01/31 00:18:04;;;;;;;5.20;1.80;;;;;;;;;;5076818;28;20054;-76
2023/01/31 00:20:31;;;;;;;5.00;1.70;;;13.50;75.80;;;;;;5094442;28;20044;-76
2023/01/31 00:23:00;;;;;;;4.22;1.67;;;;;;;;;;5076449;28;20378;-76
2023/01/31 00:25:27;;;;;;;3.88;1.80;;;;;;;;;;5076298;28;20052;-76
2023/01/31 00:27:54;;;;;;;5.07;1.73;;;;;;;;;;5076255;28;20055;-76
2023/01/31 00:30:21;;;;;;;6.57;1.90;;;;;;;;;;5094227;28;20044;-76
2023/01/31 00:32:48;;;;;;;5.18;2.05;;;;;;;;;;5076118;28;20136;-76
2023/01/31 00:35:15;;;;;;;5.03;1.70;;;12.50;74.90;;;;;;5076476;28;20079;-76
2023/01/31 00:37:42;;;;;;;5.25;2.22;;;;;;;;;;5093499;28;20070;-76
2023/01/31 00:40:13;;;;;;;4.07;1.70;;;13.40;58.50;;;;;;5093405;28;20078;-76
2023/01/31 00:42:40;;;;;;;7.50;1.85;;;;;;;;;;5092893;28;20066;-76
2023/01/31 00:45:07;;;;;;;5.43;1.75;;;11.70;62.90;;;;;;5092776;28;20055;-76
2023/01/31 00:47:34;;;;;;;4.00;1.55;;;12.40;75.70;;;;;;5076397;28;20135;-76
2023/01/31 00:50:01;;;;;;;4.90;1.67;;;;;;;;;;5076028;28;20060;-76
2023/01/31 00:52:28;;;;;;;4.13;1.50;;;;;;;;;;5075605;28;20086;-76
2023/01/31 00:54:55;;;;;;;4.35;1.83;;;;;;;;;;5075148;28;20123;-76
2023/01/31 00:57:23;;;;;;;3.53;1.90;;;12.20;75.70;;;;;;5076038;28;20051;-76
2023/01/31 00:59:50;;;;;;;2.50;1.33;;;;;;;;;;5075620;28;20058;-76
2023/01/31 01:02:17;;;;;;;4.95;1.70;;;;;;;;;;5075347;28;20058;-76
2023/01/31 01:04:44;;;;;;;4.50;1.58;;;12.30;75.50;;;;;;5075864;28;20560;-76
2023/01/31 01:07:11;;;;;;;4.13;1.55;;;;;;;;;;5075686;28;20048;-76
2023/01/31 01:09:38;;;;;;;6.75;1.80;;;;;;;;;;5075723;28;20048;-76
2023/01/31 01:12:06;;;;;;;3.45;1.50;;;12.10;57.60;;;;;;5075220;28;20058;-76
2023/01/31 01:14:34;;;;;;;4.10;1.63;;;12.00;75.60;;;;;;5075688;28;20154;-76
2023/01/31 01:17:01;;;;;;;5.35;1.85;;;;;;;;;;5075356;28;20062;-76
2023/01/31 01:19:28;;;;;;;4.10;1.50;;;;;;;;;;5075966;28;20471;-76
2023/01/31 01:21:55;;;;;;;4.00;1.67;;;12.30;75.80;;;;;;5075651;28;20138;-76
2023/01/31 01:24:22;;;;;;;4.20;1.55;;;;;;;;;;5074983;28;20136;-76
2023/01/31 01:26:49;;;;;;;5.82;1.60;;;;;;;;;;5074810;28;20123;-76
2023/01/31 01:29:16;;;;;;;3.90;1.73;;;;;;;;;;5075420;28;20138;-76
2023/01/31 01:31:44;;;;;;;3.35;1.40;;;12.10;57.70;;;;;;5075267;28;20142;-76
2023/01/31 01:34:12;;;;;;;3.63;1.63;;;11.60;72.20;;;;;;5072864;28;20135;-76
2023/01/31 01:36:39;;;;;;;3.72;1.45;;;;;;;;;;5065523;28;20481;-76
2023/01/31 01:39:07;;;;;;;4.00;1.60;;;12.00;57.60;;;;;;5092195;28;20062;-76
2023/01/31 01:41:34;;;;;;;5.60;1.60;;;;;;;;;;5091832;28;20055;-76
2023/01/31 01:44:02;;;;;;;4.07;1.55;;;;;;;;;;5091378;28;20147;-76
2023/01/31 01:46:30;;;;;;;3.97;1.63;;;12.00;57.60;;;;;;5054535;28;20044;-76
2023/01/31 01:48:59;;;;;;;4.82;1.55;;;12.10;58.40;;;;;;5055006;28;20139;-75
2023/01/31 01:51:26;;;;;;;3.30;1.60;;;;;;;;;;5056365;28;20045;-76
2023/01/31 01:53:53;;;;;;;2.60;1.50;;;;;;;;;;5074668;28;20052;-76
2023/01/31 01:56:23;;;;;;;4.95;1.45;;;12.00;57.70;;;;;;5074879;28;20044;-76
2023/01/31 01:58:53;;;;;;;4.15;1.73;;;10.90;74.90;;;;;;5074719;28;20117;-76
2023/01/31 02:01:20;;;;;;;2.60;1.50;;;;;;;;;;5074445;28;20544;-76
2023/01/31 02:03:48;;;;;;;3.85;1.60;;;;;;;;;;5074476;28;20056;-76
2023/01/31 02:06:16;;;;;;;4.75;1.85;;;12.80;75.90;;;;;;5074007;28;20052;-76
2023/01/31 02:08:43;;;;;;;4.60;1.80;;;;;;;;;;5074201;28;20548;-76
2023/01/31 02:11:12;;;;;;;6.50;1.60;;;10.90;75.20;;;;;;5074769;28;20135;-76
2023/01/31 02:13:39;;;;;;;3.03;1.50;;;12.00;75.50;;;;;;5074469;28;20054;-76
2023/01/31 02:16:06;;;;;;;4.78;1.45;;;;;;;;;;5073910;28;20122;-76
2023/01/31 02:18:33;;;;;;;3.67;1.40;;;;;;;;;;5074427;28;20044;-76
2023/01/31 02:21:32;;;;;;;4.75;1.40;;;12.00;65.10;;;;;;5074231;28;20044;-76
2023/01/31 02:24:35;;;;;;;5.25;1.42;;;11.90;75.80;;;;;;5074232;28;20044;-76
2023/01/31 02:27:23;;;;;;;5.57;1.55;;;12.80;64.90;;;;;;5073895;28;20119;-76
2023/01/31 02:30:14;;;;;;;3.00;1.38;;;12.10;62.30;;;;;;5074031;28;20385;-76
2023/01/31 02:32:59;;;;;;;3.53;1.70;;;11.90;57.70;;;;;;5073915;28;20063;-76
2023/01/31 02:35:34;;;;;;;2.70;1.30;;;12.00;73.20;;;;;;5062187;28;20075;-76
2023/01/31 02:38:07;;;;;;;2.63;1.40;;;11.80;57.60;;;;;;5087293;28;20044;-76
2023/01/31 02:40:37;;;;;;;3.58;1.40;;;11.80;57.60;;;;;;5089293;28;20048;-76
2023/01/31 02:43:06;;;;;;;3.90;1.40;;;12.00;69.60;;;;;;5073601;28;20052;-76
2023/01/31 02:45:35;;;;;;;3.80;1.38;;;;;;;;;;5073838;28;20054;-76
2023/01/31 02:48:07;;;;;;;4.85;1.33;;;12.00;76.00;;;;;;5074171;28;20044;-76
2023/01/31 02:50:36;;;;;;;4.75;1.52;;;12.00;76.00;;;;;;5073539;28;20056;-76
2023/01/31 02:53:04;;;;;;;3.92;1.33;;;12.30;57.90;;;;;;5073858;28;20473;-76
2023/01/31 02:58:18;;;;;;;4.97;1.70;;;12.00;75.70;;;;;;5073826;28;20052;-76
2023/01/31 03:00:46;;;;;;;2.60;1.30;;;;;;;;;;5073557;28;20584;-76
2023/01/31 03:03:19;;;;;;;3.53;1.50;;;11.90;57.70;;;;;;5073777;28;20179;-75
2023/01/31 03:06:10;;;;;;;2.95;1.50;;;11.90;75.90;;;;;;5073800;28;20465;-76
2023/01/31 03:08:37;;;;;;;2.95;1.30;;;;;;;;;;5073865;28;20489;-76
2023/01/31 03:11:05;;;;;;;4.05;1.55;;;;;;;;;;5074088;28;20143;-76
2023/01/31 03:13:35;;;;;;;4.47;1.50;;;11.90;57.60;;;;;;5073489;28;20139;-76
2023/01/31 03:18:59;;;;;;;3.05;1.42;;;11.90;57.70;;;;;;5076960;28;20138;-76
2023/01/31 03:21:26;;;;;;;4.93;1.50;;;;;;;;;;5077856;28;20056;-75
2023/01/31 03:23:54;;;;;;;2.97;1.38;;;;;;;;;;5077417;28;20055;-76
2023/01/31 03:26:21;;;;;;;2.50;1.20;;;12.00;75.50;;;;;;5077407;28;20416;-75
2023/01/31 03:28:53;;;;;;;4.47;1.77;;;11.00;67.40;;;;;;5077241;28;20127;-76
2023/01/31 03:31:20;;;;;;;4.10;1.60;;;;;;;;;;5077191;28;20139;-76
2023/01/31 03:33:49;;;;;;;3.42;1.40;;;11.40;75.20;;;;;;5077402;28;20130;-76
2023/01/31 03:36:24;;;;;;;4.10;1.27;;;11.90;57.60;;;;;;5077414;28;20044;-76
2023/01/31 03:38:55;;;;;;;3.13;1.30;;;10.60;75.10;;;;;;5077681;28;20059;-76
2023/01/31 03:41:24;;;;;;;2.75;1.30;;;11.90;57.60;;;;;;5077122;28;20048;-76
2023/01/31 03:43:57;;;;;;;3.63;1.45;;;12.00;57.70;;;;;;5077028;28;20048;-76
2023/01/31 03:46:26;;;;;;;3.63;1.30;;;12.00;57.60;;;;;;5076928;28;20111;-76
2023/01/31 03:48:53;;;;;;;2.97;1.50;;;12.00;57.60;;;;;;5077354;28;20056;-76
2023/01/31 03:51:24;;;;;;;3.90;1.60;;;12.00;57.60;;;;;;5077231;28;20052;-76
2023/01/31 03:53:53;;;;;;;3.00;1.48;;;12.30;75.50;;;;;;5094732;28;20052;-76
2023/01/31 03:56:21;;;;;;;3.95;1.40;;;12.00;57.60;;;;;;5077114;28;20051;-76
2023/01/31 03:58:49;;;;;;;2.45;1.25;;;12.00;57.60;;;;;;5077075;28;20054;-76
2023/01/31 04:01:16;;;;;;;4.07;1.50;;;;;;;;;;5077149;28;20056;-76
2023/01/31 04:03:44;;;;;;;2.40;1.20;;;;;;;;;;5076780;28;20056;-76
2023/01/31 04:06:11;;;;;;;2.45;1.10;;;;;;;;;;5077055;28;20523;-76
2023/01/31 04:08:39;;;;;;;2.70;1.30;;;12.70;76.00;;;;;;5076465;28;20139;-76
2023/01/31 04:11:06;;;;;;;2.38;1.30;;;;;;;;;;5076658;28;20457;-76
2023/01/31 04:13:33;;;;;;;5.40;1.50;;;;;;;;;;5076298;28;20408;-76
2023/01/31 04:16:00;;;;;;;5.63;1.45;;;12.20;75.40;;;;;;5076145;28;20048;-76
2023/01/31 04:18:27;;;;;;;2.70;1.30;;;;;;;;;;5076742;28;20058;-76
2023/01/31 04:20:54;;;;;;;4.03;1.27;;;;;;;;;;5076607;28;20055;-76
2023/01/31 04:23:21;;;;;;;5.22;1.30;;;;;;;;;;5076330;28;20068;-76
2023/01/31 04:25:49;;;;;;;3.17;1.50;;;11.70;75.20;;;;;;5076369;28;20131;-76
2023/01/31 04:28:16;;;;;;;3.08;1.30;;;;;;;;;;5076487;28;20078;-76
2023/01/31 04:30:43;;;;;;;3.92;1.20;;;;;;;;;;5075534;28;20133;-76
2023/01/31 04:33:10;;;;;;;2.40;1.08;;;;;;;;;;5078334;28;20054;-76
2023/01/31 04:35:39;;;;;;;3.53;1.40;;;12.30;75.20;;;;;;5082691;28;20056;-76
2023/01/31 04:38:06;;;;;;;2.67;1.10;;;;;;;;;;5091778;28;20579;-76
2023/01/31 04:40:33;;;;;;;3.50;1.13;;;;;;;;;;5085676;28;20489;-76
2023/01/31 04:43:02;;;;;;;2.03;1.30;;;;;;;;;;5075922;28;20091;-76
2023/01/31 04:45:29;;;;;;;2.13;1.17;;;;;;;;;;5076061;28;20134;-76
2023/01/31 04:47:56;;;;;;;2.40;1.15;;;;;;;;;;5093974;28;20127;-76
2023/01/31 04:50:23;;;;;;;3.97;1.23;;;11.80;75.00;;;;;;5075840;28;20139;-76
2023/01/31 04:52:50;;;;;;;3.42;1.30;;;;;;;;;;5075933;28;20056;-76
2023/01/31 04:55:17;;;;;;;2.28;1.20;;;12.10;75.50;;;;;;5075831;28;20056;-76
2023/01/31 04:57:44;;;;;;;5.50;1.88;;;;;;;;;;5076059;28;20051;-76
2023/01/31 05:00:13;;;;;;;2.70;1.20;;;12.10;75.40;;;;;;5076122;28;20134;-76
2023/01/31 05:02:40;;;;;;;2.60;1.10;;;;;;;;;;5075554;28;20055;-76
2023/01/31 05:05:08;;;;;;;2.42;1.20;;;12.20;75.10;;;;;;5075704;28;20509;-76
2023/01/31 05:07:35;;;;;;;3.08;1.30;;;;;;;;;;5075461;28;20143;-76
2023/01/31 05:10:02;;;;;;;3.85;1.30;;;;;;;;;;5075736;28;20056;-76
2023/01/31 05:12:30;;;;;;;3.42;1.20;;;12.10;57.40;;;;;;5074921;28;20127;-76
2023/01/31 05:14:57;;;;;;;2.28;1.10;;;;;;;;;;5093741;28;20513;-76
2023/01/31 05:17:28;;;;;;;3.22;1.30;;;12.30;75.10;;;;;;5075517;28;20044;-76
2023/01/31 05:19:56;;;;;;;3.30;1.27;;;;;;;;;;5075745;28;20063;-76
2023/01/31 05:22:23;;;;;;;2.55;1.25;;;;;;;;;;5074895;28;20712;-75
2023/01/31 05:24:50;;;;;;;3.45;1.20;;;;;;;;;;5075481;28;20547;-76
2023/01/31 05:27:17;;;;;;;3.42;1.13;;;;;;;;;;5075345;28;20083;-76
2023/01/31 05:29:44;;;;;;;3.60;1.70;;;;;;;;;;5080330;28;20143;-76
2023/01/31 05:32:11;;;;;;;2.20;1.20;;;;;;;;;;5091622;28;20055;-76
2023/01/31 05:34:39;;;;;;;4.00;1.42;;;12.20;57.40;;;;;;5089774;28;20052;-76
2023/01/31 05:37:07;;;;;;;4.07;1.17;;;;;;;;;;5082260;28;20150;-76
2023/01/31 05:39:34;;;;;;;3.22;1.20;;;;;;;;;;5075290;28;20060;-76
2023/01/31 05:42:01;;;;;;;2.88;1.10;;;;;;;;;;5092805;28;20386;-76
2023/01/31 05:44:28;;;;;;;3.75;1.23;;;12.10;68.70;;;;;;5075159;28;20055;-76
2023/01/31 05:46:55;;;;;;;2.30;1.13;;;;;;;;;;5074462;28;20544;-76
2023/01/31 05:49:22;;;;;;;2.97;1.13;;;;;;;;;;5075216;28;20492;-76
2023/01/31 05:51:50;;;;;;;3.17;1.20;;;11.00;74.80;;;;;;5074352;28;20477;-76
2023/01/31 05:54:17;;;;;;;2.95;1.30;;;;;;;;;;5073702;28;20058;-76
2023/01/31 05:56:44;;;;;;;2.10;1.00;;;;;;;;;;5054697;28;20127;-76
2023/01/31 05:59:11;;;;;;;3.35;1.30;;;;;;;;;;5054253;28;20131;-76
2023/01/31 06:01:38;;;;;;;2.30;1.23;;;;;;;;;;5054733;28;20493;-76
2023/01/31 06:04:05;;;;;;;3.25;1.23;;;10.90;74.40;;;;;;5054468;28;20477;-76
2023/01/31 06:06:32;;;;;;;1.95;1.10;;;12.50;75.60;;;;;;5054590;28;20045;-76
2023/01/31 06:09:00;;;;;;;2.88;1.42;;;12.20;57.40;;;;;;5069646;28;20055;-75
2023/01/31 06:11:27;;;;;;;2.70;1.10;;;;;;;;;;5074325;28;20047;-76
2023/01/31 06:13:56;;;;;;;2.83;1.40;;;;;;;;;;5074659;28;20090;-76
2023/01/31 06:16:23;;;;;;;2.08;1.10;;;12.20;71.90;;;;;;5074203;28;20055;-76
2023/01/31 06:18:50;;;;;;;2.70;1.10;;;;;;;;;;5074759;28;20505;-76
2023/01/31 06:21:17;;;;;;;3.13;1.27;;;;;;;;;;5074114;28;20464;-76
2023/01/31 06:23:45;;;;;;;3.38;1.20;;;13.20;75.60;;;;;;5074258;28;20135;-76
2023/01/31 06:26:13;;;;;;;5.13;1.50;;;12.50;75.20;;;;;;5070723;28;20405;-75
2023/01/31 06:28:40;;;;;;;3.97;1.40;;;;;;;;;;5071110;28;20382;-76
2023/01/31 06:31:08;;;;;;;3.35;1.27;;;;;;;;;;5071028;28;20466;-76
2023/01/31 06:33:34;;;;;;;2.80;1.20;;;11.10;74.50;;;;;;5070269;28;20059;-76
2023/01/31 06:36:01;;;;;;;4.00;1.27;;;;;;;;;;5073485;28;20055;-76
2023/01/31 06:38:28;;;;;;;1.70;1.15;;;;;;;;;;5074152;28;20485;-76
2023/01/31 06:40:56;;;;;;;3.53;1.58;;;;;;;;;;5092260;28;20088;-75
2023/01/31 06:43:24;;;;;;;3.13;1.10;;;;;;;;;;5073917;28;20151;-76
2023/01/31 06:45:51;;;;;;;2.53;1.25;;;;;;;;;;5074137;28;20132;-76
2023/01/31 06:48:19;;;;;;;2.63;1.20;;;;;;;;;;5073904;28;20127;-76
2023/01/31 06:50:46;;;;;;;3.90;1.33;;;;;;;;;;5073129;28;20051;-75
2023/01/31 06:53:13;;;;;;;3.50;1.17;;;;;;;;;;5073155;28;20056;-76
2023/01/31 06:55:40;;;;;;;2.20;1.15;;;12.40;75.20;;;;;;5074094;28;20058;-76
2023/01/31 06:58:07;;;;;;;3.03;1.30;;;;;;;;;;5074128;28;20051;-76
2023/01/31 07:00:36;;;;;;;3.03;1.40;;;;;;;;;;5074132;28;20405;-76
2023/01/31 07:03:03;;;;;;;1.52;1.05;;;;;;;;;;5073407;28;20131;-76
2023/01/31 07:05:30;;;;;;;2.35;1.23;;;;;;;;;;5091295;28;20048;-76
2023/01/31 07:07:57;;;;;;;3.90;1.48;;;;;;;;;;5073700;28;20046;-76
2023/01/31 07:10:24;;;;;;;3.78;1.60;;;;;;;;;;5074081;28;20151;-76
2023/01/31 07:12:51;;;;;;;2.38;1.30;;;12.00;75.30;;;;;;5073595;28;20060;-76
2023/01/31 07:15:18;;;;;;;4.18;1.10;;;;;;;;;;5073924;28;20161;-75
2023/01/31 07:17:46;;;;;;;2.60;1.15;;;13.20;69.80;;;;;;5073634;28;20130;-76
2023/01/31 07:20:13;;;;;;;3.15;1.25;;;;;;;;;;5073872;28;20056;-76
2023/01/31 07:22:40;;;;;;;2.60;1.20;;;;;;;;;;5082101;28;20048;-76
2023/01/31 07:25:08;;;;;;;3.42;1.42;;;12.30;75.00;;;;;;5090798;28;20091;-76
2023/01/31 07:27:35;;;;;;;2.45;1.20;;;;;;;;;;5090125;28;20066;-75
2023/01/31 07:30:02;;;;;;;5.32;1.63;;;;;;;;;;5089823;28;20392;-75
2023/01/31 07:32:30;;;;;;;2.67;1.30;;;12.30;70.30;;;;;;5073452;28;20408;-76
2023/01/31 07:34:58;;;;;;;3.95;1.20;;;12.30;57.40;;;;;;5073430;28;20048;-75
2023/01/31 07:37:25;;;;;;;2.97;1.40;;;;;;;;;;5083429;28;20132;-75
2023/01/31 07:39:52;;;;;;;2.78;1.40;;;;;;;;;;5072810;28;20056;-76
2023/01/31 07:42:19;;;;;;;2.92;1.23;;;;;;;;;;5070881;28;20134;-75
2023/01/31 07:44:46;;;;;;;2.58;1.27;;;11.90;74.80;;;;;;5072228;28;20058;-75
2023/01/31 07:47:12;;;;;;;4.30;1.77;;;11.60;74.40;;;;;;5073040;28;20127;-75
2023/01/31 07:49:39;;;;;;;3.97;1.40;;;;;;;;;;5073521;28;20087;-76
2023/01/31 07:52:07;;;;;;;2.22;1.20;;;12.50;57.30;;;;;;5073129;28;20052;-76
2023/01/31 07:54:34;;;;;;;1.92;1.30;;;12.60;75.00;;;;;;5073005;28;20064;-76
2023/01/31 07:57:02;;;;;;;3.00;1.50;;;;;;;;;;5073479;28;20155;-77
2023/01/31 07:59:28;;;;;;;2.90;1.20;;;12.40;74.80;;;;;;5073587;28;20134;-76
2023/01/31 08:04:40;;;;;;;2.42;1.23;;;;;;;;;;5074647;28;20044;-76
2023/01/31 08:07:09;;;;;;;3.15;1.42;;;12.70;57.10;;;;;;5076398;28;20127;-76
2023/01/31 08:09:37;;;;;;;2.80;1.33;;;;;;;;;;5075857;28;20075;-76
2023/01/31 08:12:05;;;;;;;3.70;1.75;;;12.90;70.30;;;;;;5074161;28;20060;-76
2023/01/31 08:14:32;;;;;;;3.17;1.48;;;;;;;;;;5076655;28;20130;-76
2023/01/31 08:16:58;;;;;;;2.80;1.08;;;12.90;73.60;;;;;;5076602;28;20516;-76
2023/01/31 08:19:25;;;;;;;1.85;1.20;;;12.90;74.50;;;;;;5079006;28;20087;-76
2023/01/31 08:21:52;;;;;;;3.88;1.17;;;;;;;;;;5065766;28;20044;-76
2023/01/31 08:24:20;;;;;;;2.33;1.10;;;12.90;74.40;;;;;;5076668;28;20090;-76
2023/01/31 08:26:47;;;;;;;1.77;1.20;;;13.10;74.10;;;;;;5093702;28;20419;-76
2023/01/31 08:29:14;;;;;;;2.97;1.40;;;;;;;;;;5076543;28;20090;-77
2023/01/31 08:31:41;;;;;;;2.30;1.17;;;;;;;;;;5076295;28;20558;-76
2023/01/31 08:34:09;;;;;;;2.00;1.10;;;;;;;;;;5075634;28;20059;-77
2023/01/31 08:36:35;;;;;;;3.85;1.20;;;13.20;74.00;;;;;;5079095;28;20054;-76
2023/01/31 08:39:02;;;;;;;3.00;1.23;;;12.70;74.10;;;;;;5093255;28;20484;-77
2023/01/31 08:41:32;;;;;;;2.10;1.25;;;12.50;64.00;;;;;;5094028;28;20040;-76
2023/01/31 08:43:59;;;;;;;3.70;1.35;;;11.80;61.80;;;;;;5091952;28;20050;-76
2023/01/31 08:46:28;;;;;;;3.42;1.33;;;12.80;73.70;;;;;;5075864;28;20059;-76
2023/01/31 08:48:55;;;;;;;2.53;1.15;;;;;;;;;;5109094;28;20052;-75
2023/01/31 08:51:22;;;;;;;3.10;1.20;;;13.20;73.70;;;;;;5085596;28;20066;-76
2023/01/31 08:53:49;;;;;;;3.08;1.42;;;13.80;74.30;;;;;;5084372;28;20058;-76
2023/01/31 08:56:16;;;;;;;1.90;1.20;;;;;;;;;;5085237;28;20139;-76
2023/01/31 08:58:44;;;;;;;2.13;1.15;;;11.80;62.00;;;;;;5086601;28;20126;-76
2023/01/31 09:01:11;;;;;;;2.53;1.40;;;12.00;73.40;;;;;;5084687;28;20051;-76
2023/01/31 09:03:38;;;;;;;2.05;1.23;;;13.70;74.20;;;;;;5084435;28;20082;-76
2023/01/31 09:06:06;;;;;;;2.25;1.13;;;13.10;73.90;;;;;;5086635;28;20056;-76
2023/01/31 09:08:33;;;;;;;2.22;1.20;;;13.20;74.00;;;;;;5085265;28;20066;-76
2023/01/31 09:11:00;;;;;;;2.13;1.10;;;;;;;;;;5084790;28;20085;-76
2023/01/31 09:13:27;;;;;;;1.88;0.90;;;13.20;73.50;;;;;;5086101;28;20047;-76
2023/01/31 09:15:59;;;;;;;2.95;1.30;;;13.30;69.20;;;;;;5085518;28;20419;-76
2023/01/31 09:18:26;;;;;;;3.53;1.33;;;;;;;;;;5086650;28;20146;-76
2023/01/31 09:20:53;;;;;;;2.15;1.17;;;14.30;74.00;;;;;;5090903;28;20138;-76
2023/01/31 09:23:19;;;;;;;3.33;1.25;;;13.20;73.50;;;;;;5091385;28;20055;-76
2023/01/31 09:25:52;;;;;;;2.75;0.90;;;13.00;62.60;;;;;;5085329;28;20059;-76
2023/01/31 09:28:19;;;;;;;2.65;1.40;;;13.20;73.70;;;;;;5083465;28;20051;-76
2023/01/31 09:30:45;;;;;;;2.97;1.33;;;13.60;73.90;;;;;;5084964;28;20130;-77
2023/01/31 09:33:14;;;;;;;3.45;1.40;;;13.40;56.30;;;;;;5083009;28;20046;-76
2023/01/31 09:35:41;;;;;;;2.00;1.08;;;;;;;;;;5095943;28;20043;-77
2023/01/31 09:38:08;;;;;;;1.98;1.17;;;;;;;;;;5083922;28;20063;-77
2023/01/31 09:40:36;;;;;;;2.88;1.20;;;13.30;56.20;;;;;;5083906;28;20052;-76
2023/01/31 09:43:04;;;;;;;1.75;1.00;;;13.30;73.70;;;;;;5081564;28;20054;-77
2023/01/31 09:45:32;;;;;;;4.13;1.10;;;14.20;73.80;;;;;;5084803;28;20125;-77
2023/01/31 09:47:59;;;;;;;2.40;1.02;;;12.50;73.30;;;;;;5083192;28;20127;-77
2023/01/31 09:50:31;;;;;;;2.70;1.20;;;13.70;73.70;;;;;;5075159;28;20385;-77
2023/01/31 09:52:58;;;;;;;2.45;1.15;;;13.40;73.40;;;;;;5074687;28;20044;-77
2023/01/31 09:55:27;;;;;;;1.55;1.00;;;13.40;56.10;;;;;;5081810;28;20066;-76
2023/01/31 09:57:56;;;;;;;2.38;1.20;;;13.50;73.30;;;;;;5085092;28;20047;-77
2023/01/31 10:00:25;;;;;;;4.22;1.23;;;13.30;61.60;;;;;;5082271;28;20056;-77
2023/01/31 10:03:00;;;;;;;2.00;1.08;;;12.80;73.30;;;;;;5109546;28;20044;-77
2023/01/31 10:05:33;;;;;;;2.05;1.20;;;13.50;56.10;;;;;;5083051;28;20133;-77
2023/01/31 10:08:03;;;;;;;3.58;1.30;;;13.00;57.90;;;;;;5082293;28;20042;-77
2023/01/31 10:10:33;;;;;;;2.17;1.20;;;13.40;73.20;;;;;;5086059;28;20126;-77
2023/01/31 10:13:02;;;;;;;3.05;1.30;;;;;;;;;;5080915;28;20052;-77
2023/01/31 10:15:31;;;;;;;2.85;1.17;;;13.70;67.60;;;;;;5083958;28;20101;-77
2023/01/31 10:17:59;;;;;;;2.90;1.15;;;13.50;56.10;;;;;;5085023;28;20068;-76
2023/01/31 10:20:30;;;;;;;2.00;0.90;;;13.50;56.00;;;;;;5084214;28;20130;-77
2023/01/31 10:23:01;;;;;;;2.08;1.10;;;13.60;73.50;;;;;;5085029;28;20057;-77
2023/01/31 10:25:28;;;;;;;2.45;1.10;;;13.50;56.00;;;;;;5082005;28;20110;-76
2023/01/31 10:27:57;;;;;;;3.03;1.33;;;13.60;73.30;;;;;;5082486;28;20576;-77
2023/01/31 10:30:25;;;;;;;2.10;1.20;;;;;;;;;;5084038;28;20096;-77
2023/01/31 10:32:54;;;;;;;3.25;1.10;;;14.00;73.40;;;;;;5084788;28;20048;-77
2023/01/31 10:35:23;;;;;;;2.38;1.20;;;13.60;56.10;;;;;;5065627;28;20047;-73
2023/01/31 10:37:53;;;;;;;3.13;1.20;;;13.60;56.00;;;;;;5074018;28;20104;-77
2023/01/31 10:40:22;;;;;;;2.78;1.30;;;13.30;73.10;;;;;;5071567;28;20131;-77
2023/01/31 10:42:51;;;;;;;1.38;1.10;;;13.90;72.60;;;;;;5072998;28;20497;-77
2023/01/31 10:45:18;;;;;;;2.05;1.23;;;;;;;;;;5074207;28;20055;-77
2023/01/31 10:47:49;;;;;;;3.00;1.10;;;13.70;73.50;;;;;;5073975;28;20101;-77
2023/01/31 10:50:17;;;;;;;2.67;1.27;;;13.30;73.20;;;;;;5108307;28;20056;-77
2023/01/31 10:52:57;;;;;;;2.13;1.10;;;13.80;73.40;;;;;;5107773;28;20127;-77
2023/01/31 10:55:39;;;;;;;3.25;1.20;;;13.60;56.00;;;;;;5107896;28;20052;-77
2023/01/31 10:58:08;;;;;;;1.75;1.13;;;13.70;56.00;;;;;;5108021;28;20500;-77
2023/01/31 11:00:34;;;;;;;2.90;1.20;;;14.20;73.40;;;;;;5106766;28;20040;-77
2023/01/31 11:03:01;;;;;;;2.15;1.10;;;13.50;59.20;;;;;;5073907;28;20048;-77
2023/01/31 11:05:29;;;;;;;2.78;1.17;;;13.60;56.00;;;;;;5073721;28;20132;-77
2023/01/31 11:07:57;;;;;;;3.13;1.65;;;13.40;71.50;;;;;;5084775;28;20052;-77
2023/01/31 11:10:25;;;;;;;2.65;1.17;;;13.30;73.30;;;;;;5090302;28;20048;-75
2023/01/31 11:12:53;;;;;;;2.75;1.30;;;14.10;73.30;;;;;;5087493;28;20465;-76
2023/01/31 11:15:20;;;;;;;1.65;1.10;;;;;;;;;;5082414;28;20127;-76
2023/01/31 11:17:47;;;;;;;1.98;1.00;;;13.70;73.20;;;;;;5078877;28;20134;-75
2023/01/31 11:20:22;;;;;;;3.03;1.20;;;13.60;61.00;;;;;;5080858;28;20074;-76
2023/01/31 11:22:48;;;;;;;;;;;13.60;56.20;;;;;;5073901;28;20044;-76
2023/01/31 11:25:18;;;;;;;3.13;1.20;;;13.50;56.40;;;;;;5073992;28;19930;-75
2023/01/31 11:27:45;;;;;;;2.78;1.60;;;12.60;73.20;;;;;;5071375;28;20626;-75
2023/01/31 11:30:20;;;;;;;2.55;1.20;;;13.20;62.50;;;;;;5065050;28;20127;-75
2023/01/31 11:32:47;;;;;;;;;;;13.50;56.30;;;;;;5073627;28;20395;-75
2023/01/31 11:35:22;;;;;;;2.65;1.10;;;13.40;56.60;;;;;;5065205;28;19927;-75
2023/01/31 11:37:50;;;;;;;3.03;1.20;;;13.50;74.00;;;;;;5086878;28;20052;-75
2023/01/31 11:40:21;;;;;;;2.05;0.93;;;13.40;73.10;;;;;;5094695;28;20492;-73
2023/01/31 11:42:52;;;;;;;1.90;1.13;;;12.10;64.60;;;;;;5094307;28;20468;-76
2023/01/31 11:45:20;;;;;;;1.65;1.00;;;13.50;74.20;;;;;;5080782;28;20513;-77
2023/01/31 11:47:47;;;;;;;2.50;1.17;;;13.50;68.40;;;;;;5077317;28;20066;-76
2023/01/31 11:50:21;;;;;;;2.45;1.10;;;;;;;;;;5076695;28;20084;-76
2023/01/31 11:52:48;;;;;;;2.28;1.20;;;;;;;;;;5056937;28;20059;-76
2023/01/31 11:55:16;;;;;;;3.03;1.27;;;13.50;62.90;;;;;;5057217;28;20140;-76
2023/01/31 11:57:45;;;;;;;2.22;1.20;;;13.30;56.70;;;;;;5063837;28;20495;-76
2023/01/31 12:00:21;;;;;;;2.33;1.30;;;12.60;65.70;;;;;;5095004;28;20102;-77
2023/01/31 12:02:48;;;;;;;2.95;1.50;;;;;;;;;;5075761;28;20539;-76
2023/01/31 12:05:15;;;;;;;2.28;1.20;;;13.20;56.70;;;;;;5077247;28;20062;-76
2023/01/31 12:07:44;;;;;;;3.17;1.27;;;13.60;74.50;;;;;;5086629;28;20130;-76
2023/01/31 12:10:30;;;;;;;2.35;1.20;;;13.10;58.80;;;;;;5085338;28;20058;-76
2023/01/31 12:13:00;;;;;;;2.47;1.30;;;13.20;65.60;;;;;;5082547;28;20390;-76
2023/01/31 12:15:27;;;;;;;2.05;1.10;;;13.20;74.30;;;;;;5086403;28;20059;-76
2023/01/31 12:17:55;;;;;;;2.38;1.20;;;;;;;;;;5087244;28;20134;-76
2023/01/31 12:20:24;;;;;;;1.85;1.20;;;13.10;56.90;;;;;;5086031;28;20048;-76
2023/01/31 12:22:53;;;;;;;3.97;1.20;;;13.10;56.80;;;;;;5084830;28;20052;-76
2023/01/31 12:25:27;;;;;;;2.63;1.25;;;13.90;74.80;;;;;;5056497;28;20504;-76
2023/01/31 12:28:00;;;;;;;1.85;1.10;;;13.10;57.00;;;;;;5056701;28;20144;-76
2023/01/31 12:30:34;;;;;;;2.05;1.00;;;13.00;74.50;;;;;;5056400;28;20063;-76
2023/01/31 12:33:11;;;;;;;3.45;1.15;;;14.30;75.00;;;;;;5073653;28;20048;-76
2023/01/31 12:35:45;;;;;;;2.33;1.20;;;13.80;73.30;;;;;;5070152;28;20063;-76
2023/01/31 12:38:22;;;;;;;2.03;1.10;;;13.10;74.60;;;;;;5093026;28;20062;-76
2023/01/31 12:40:52;;;;;;;3.47;1.10;;;12.90;74.30;;;;;;5093057;28;20062;-75
2023/01/31 12:43:39;;;;;;;2.13;1.10;;;13.00;74.60;;;;;;5093061;28;20059;-76
2023/01/31 12:46:08;;;;;;;1.70;1.00;;;13.00;57.10;;;;;;5081737;28;20132;-76
2023/01/31 12:48:55;;;;;;;2.33;1.30;;;13.20;74.60;;;;;;5076359;28;20048;-76
2023/01/31 12:51:29;;;;;;;2.53;1.10;;;12.60;56.80;;;;;;5075074;28;20139;-75
2023/01/31 12:54:01;;;;;;;3.70;1.30;;;13.10;74.40;;;;;;5075704;28;20112;-76
2023/01/31 12:56:43;;;;;;;2.63;1.10;;;13.00;74.30;;;;;;5076140;28;20051;-75
2023/01/31 12:59:20;;;;;;;2.25;1.20;;;13.00;57.20;;;;;;5076596;28;20046;-76
2023/01/31 13:01:48;;;;;;;4.45;1.30;;;13.00;57.20;;;;;;5082598;28;20088;-75
2023/01/31 13:04:30;;;;;;;3.38;1.63;;;13.20;74.50;;;;;;5075819;28;20054;-76
2023/01/31 13:06:58;;;;;;;3.33;1.27;;;11.80;74.10;;;;;;5075749;28;20139;-75
2023/01/31 13:09:26;;;;;;;2.08;1.10;;;12.90;57.10;;;;;;5075712;28;20119;-75
2023/01/31 13:11:55;;;;;;;2.28;1.23;;;13.00;57.20;;;;;;5075783;28;20048;-75
2023/01/31 13:14:24;;;;;;;1.17;0.90;;;12.90;74.70;;;;;;5075234;28;20594;-76
2023/01/31 13:16:52;;;;;;;2.22;1.13;;;12.90;65.40;;;;;;5075593;28;20488;-75
2023/01/31 13:19:20;;;;;;;2.47;1.20;;;;;;;;;;5075698;28;20556;-75
2023/01/31 13:21:48;;;;;;;2.83;1.15;;;13.00;57.10;;;;;;5075634;28;20060;-76
2023/01/31 13:24:17;;;;;;;2.45;1.20;;;13.00;57.10;;;;;;5075287;28;20138;-75
2023/01/31 13:26:45;;;;;;;2.30;1.10;;;13.30;74.40;;;;;;5075367;28;20059;-75
2023/01/31 13:29:14;;;;;;;2.10;1.13;;;13.20;74.30;;;;;;5075561;28;20048;-76
2023/01/31 13:31:44;;;;;;;3.75;1.23;;;12.70;74.10;;;;;;5074979;28;20135;-76
2023/01/31 13:34:15;;;;;;;3.38;1.20;;;13.10;57.10;;;;;;5075137;28;20131;-75
2023/01/31 13:36:43;;;;;;;2.25;1.00;;;13.10;66.70;;;;;;5078587;28;20056;-75
2023/01/31 13:39:14;;;;;;;1.60;1.20;;;12.40;62.20;;;;;;5092090;28;20123;-75
2023/01/31 13:41:41;;;;;;;2.17;1.25;;;;;;;;;;5092003;28;20405;-75
2023/01/31 13:44:11;;;;;;;3.42;1.10;;;13.10;57.00;;;;;;5092778;28;20493;-75
2023/01/31 13:46:39;;;;;;;2.30;1.10;;;13.10;57.00;;;;;;5082225;28;20385;-75